< < Back
Terminal Aerodrome Forecast


Current Version              Previous Versions:   1  2  3  4  5  6  7  8  9  

Terminal Aerodrome Forecast

244
FTUS42 KGSP 240544 RRA
TAFGSP
TAF
KGSP 240544Z 2406/2506 02003KT P6SM SCT180 BKN250
     FM241600 22004KT P6SM SCT160=



Latest METAR

795
SAUS70 KWBC 241100 RRG
MTRGSP
METAR KGSP 241053Z AUTO 00000KT 10SM CLR 07/05 A3004 RMK AO2 SLP171
T00720050


USA.gov is the U.S. government's official web portal to all federal, state and local government web resources and services.